sensor_id;sensor_type;location;lat;lon;timestamp;P1;durP1;ratioP1;P2;durP2;ratioP2
26502;SDS011;14177;51.520;6.764;2024-01-30T00:00:33;9.18;;;5.30;;
26502;SDS011;14177;51.520;6.764;2024-01-30T00:03:07;10.65;;;5.63;;
26502;SDS011;14177;51.520;6.764;2024-01-30T00:05:35;12.82;;;7.40;;
26502;SDS011;14177;51.520;6.764;2024-01-30T00:08:05;11.85;;;6.10;;
26502;SDS011;14177;51.520;6.764;2024-01-30T00:10:32;11.32;;;6.47;;
26502;SDS011;14177;51.520;6.764;2024-01-30T00:13:06;11.90;;;5.88;;
26502;SDS011;14177;51.520;6.764;2024-01-30T00:15:33;11.55;;;5.50;;
26502;SDS011;14177;51.520;6.764;2024-01-30T00:18:01;9.07;;;5.65;;
26502;SDS011;14177;51.520;6.764;2024-01-30T00:20:28;7.75;;;5.18;;
26502;SDS011;14177;51.520;6.764;2024-01-30T00:22:55;8.23;;;5.60;;
26502;SDS011;14177;51.520;6.764;2024-01-30T00:25:22;10.20;;;6.13;;
26502;SDS011;14177;51.520;6.764;2024-01-30T00:27:56;11.75;;;5.47;;
26502;SDS011;14177;51.520;6.764;2024-01-30T00:30:30;11.02;;;5.75;;
26502;SDS011;14177;51.520;6.764;2024-01-30T00:32:59;10.57;;;5.72;;
26502;SDS011;14177;51.520;6.764;2024-01-30T00:35:29;9.60;;;5.68;;
26502;SDS011;14177;51.520;6.764;2024-01-30T00:38:00;9.82;;;5.70;;
26502;SDS011;14177;51.520;6.764;2024-01-30T00:40:27;9.68;;;5.53;;
26502;SDS011;14177;51.520;6.764;2024-01-30T00:42:55;10.68;;;6.00;;
26502;SDS011;14177;51.520;6.764;2024-01-30T00:45:25;8.70;;;5.47;;
26502;SDS011;14177;51.520;6.764;2024-01-30T00:48:18;10.60;;;6.07;;
26502;SDS011;14177;51.520;6.764;2024-01-30T00:50:45;11.50;;;5.88;;
26502;SDS011;14177;51.520;6.764;2024-01-30T00:53:12;14.27;;;5.80;;
26502;SDS011;14177;51.520;6.764;2024-01-30T00:55:39;9.52;;;5.90;;
26502;SDS011;14177;51.520;6.764;2024-01-30T00:58:06;12.82;;;6.18;;
26502;SDS011;14177;51.520;6.764;2024-01-30T01:00:33;13.50;;;6.57;;
26502;SDS011;14177;51.520;6.764;2024-01-30T01:03:00;10.85;;;6.35;;
26502;SDS011;14177;51.520;6.764;2024-01-30T01:05:28;10.90;;;5.80;;
26502;SDS011;14177;51.520;6.764;2024-01-30T01:07:55;9.10;;;5.45;;
26502;SDS011;14177;51.520;6.764;2024-01-30T01:10:24;11.73;;;5.68;;
26502;SDS011;14177;51.520;6.764;2024-01-30T01:12:51;10.77;;;5.70;;
26502;SDS011;14177;51.520;6.764;2024-01-30T01:15:24;9.70;;;5.65;;
26502;SDS011;14177;51.520;6.764;2024-01-30T01:17:56;10.15;;;5.93;;
26502;SDS011;14177;51.520;6.764;2024-01-30T01:20:23;12.45;;;6.20;;
26502;SDS011;14177;51.520;6.764;2024-01-30T01:22:52;8.90;;;5.32;;
26502;SDS011;14177;51.520;6.764;2024-01-30T01:25:20;10.60;;;5.55;;
26502;SDS011;14177;51.520;6.764;2024-01-30T01:27:49;11.60;;;6.57;;
26502;SDS011;14177;51.520;6.764;2024-01-30T01:30:18;9.05;;;5.47;;
26502;SDS011;14177;51.520;6.764;2024-01-30T01:32:48;13.52;;;5.82;;
26502;SDS011;14177;51.520;6.764;2024-01-30T01:35:23;18.15;;;8.82;;
26502;SDS011;14177;51.520;6.764;2024-01-30T01:38:02;21.55;;;11.40;;
26502;SDS011;14177;51.520;6.764;2024-01-30T01:40:32;21.63;;;10.65;;
26502;SDS011;14177;51.520;6.764;2024-01-30T01:43:05;19.95;;;10.25;;
26502;SDS011;14177;51.520;6.764;2024-01-30T01:45:35;15.05;;;8.95;;
26502;SDS011;14177;51.520;6.764;2024-01-30T01:48:02;14.15;;;8.07;;
26502;SDS011;14177;51.520;6.764;2024-01-30T01:50:30;18.02;;;9.05;;
26502;SDS011;14177;51.520;6.764;2024-01-30T01:53:07;18.77;;;6.30;;
26502;SDS011;14177;51.520;6.764;2024-01-30T01:55:34;15.38;;;8.07;;
26502;SDS011;14177;51.520;6.764;2024-01-30T01:58:03;14.57;;;7.15;;
26502;SDS011;14177;51.520;6.764;2024-01-30T02:00:34;20.90;;;8.85;;
26502;SDS011;14177;51.520;6.764;2024-01-30T02:03:10;14.88;;;7.65;;
26502;SDS011;14177;51.520;6.764;2024-01-30T02:05:41;11.95;;;7.25;;
26502;SDS011;14177;51.520;6.764;2024-01-30T02:08:14;20.50;;;7.22;;
26502;SDS011;14177;51.520;6.764;2024-01-30T02:10:47;14.50;;;7.78;;
26502;SDS011;14177;51.520;6.764;2024-01-30T02:13:21;11.52;;;6.93;;
26502;SDS011;14177;51.520;6.764;2024-01-30T02:15:49;14.38;;;7.93;;
26502;SDS011;14177;51.520;6.764;2024-01-30T02:18:17;12.65;;;7.43;;
26502;SDS011;14177;51.520;6.764;2024-01-30T02:20:50;14.43;;;7.18;;
26502;SDS011;14177;51.520;6.764;2024-01-30T02:23:30;12.38;;;6.63;;
26502;SDS011;14177;51.520;6.764;2024-01-30T02:26:07;13.32;;;7.38;;
26502;SDS011;14177;51.520;6.764;2024-01-30T02:28:43;15.80;;;6.75;;
26502;SDS011;14177;51.520;6.764;2024-01-30T02:31:10;17.95;;;7.60;;
26502;SDS011;14177;51.520;6.764;2024-01-30T02:33:45;14.45;;;6.80;;
26502;SDS011;14177;51.520;6.764;2024-01-30T02:36:13;12.68;;;7.05;;
26502;SDS011;14177;51.520;6.764;2024-01-30T02:38:50;18.23;;;8.20;;
26502;SDS011;14177;51.520;6.764;2024-01-30T02:41:17;15.18;;;6.82;;
26502;SDS011;14177;51.520;6.764;2024-01-30T02:43:47;14.57;;;7.30;;
26502;SDS011;14177;51.520;6.764;2024-01-30T02:46:14;14.07;;;7.63;;
26502;SDS011;14177;51.520;6.764;2024-01-30T02:48:41;19.83;;;7.22;;
26502;SDS011;14177;51.520;6.764;2024-01-30T02:51:12;16.88;;;8.50;;
26502;SDS011;14177;51.520;6.764;2024-01-30T02:53:38;16.98;;;7.07;;
26502;SDS011;14177;51.520;6.764;2024-01-30T02:56:08;9.50;;;6.20;;
26502;SDS011;14177;51.520;6.764;2024-01-30T02:58:39;14.38;;;6.75;;
26502;SDS011;14177;51.520;6.764;2024-01-30T03:01:07;12.20;;;7.07;;
26502;SDS011;14177;51.520;6.764;2024-01-30T03:03:41;14.80;;;6.70;;
26502;SDS011;14177;51.520;6.764;2024-01-30T03:06:09;20.23;;;6.90;;
26502;SDS011;14177;51.520;6.764;2024-01-30T03:08:36;12.68;;;6.60;;
26502;SDS011;14177;51.520;6.764;2024-01-30T03:11:03;12.55;;;6.95;;
26502;SDS011;14177;51.520;6.764;2024-01-30T03:13:32;12.32;;;6.25;;
26502;SDS011;14177;51.520;6.764;2024-01-30T03:16:02;11.23;;;6.18;;
26502;SDS011;14177;51.520;6.764;2024-01-30T03:18:29;10.27;;;6.50;;
26502;SDS011;14177;51.520;6.764;2024-01-30T03:21:01;14.23;;;6.30;;
26502;SDS011;14177;51.520;6.764;2024-01-30T03:23:31;10.88;;;6.43;;
26502;SDS011;14177;51.520;6.764;2024-01-30T03:25:58;10.95;;;6.22;;
26502;SDS011;14177;51.520;6.764;2024-01-30T03:28:25;14.30;;;7.03;;
26502;SDS011;14177;51.520;6.764;2024-01-30T03:31:14;11.85;;;6.10;;
26502;SDS011;14177;51.520;6.764;2024-01-30T03:33:42;8.05;;;5.55;;
26502;SDS011;14177;51.520;6.764;2024-01-30T03:36:16;17.00;;;6.82;;
26502;SDS011;14177;51.520;6.764;2024-01-30T03:38:51;10.77;;;5.78;;
26502;SDS011;14177;51.520;6.764;2024-01-30T03:41:24;10.02;;;5.93;;
26502;SDS011;14177;51.520;6.764;2024-01-30T03:43:53;10.60;;;6.18;;
26502;SDS011;14177;51.520;6.764;2024-01-30T03:46:26;12.20;;;6.38;;
26502;SDS011;14177;51.520;6.764;2024-01-30T03:48:53;11.77;;;6.93;;
26502;SDS011;14177;51.520;6.764;2024-01-30T03:53:54;10.50;;;6.00;;
26502;SDS011;14177;51.520;6.764;2024-01-30T03:56:25;12.30;;;5.95;;
26502;SDS011;14177;51.520;6.764;2024-01-30T03:58:56;12.00;;;6.28;;
26502;SDS011;14177;51.520;6.764;2024-01-30T04:01:30;9.27;;;6.07;;
26502;SDS011;14177;51.520;6.764;2024-01-30T04:04:02;11.18;;;5.72;;
26502;SDS011;14177;51.520;6.764;2024-01-30T04:06:32;10.60;;;5.93;;
26502;SDS011;14177;51.520;6.764;2024-01-30T04:09:02;10.23;;;5.75;;
26502;SDS011;14177;51.520;6.764;2024-01-30T04:11:37;12.85;;;6.75;;
26502;SDS011;14177;51.520;6.764;2024-01-30T04:14:03;12.15;;;6.72;;
26502;SDS011;14177;51.520;6.764;2024-01-30T04:16:34;9.90;;;6.75;;
26502;SDS011;14177;51.520;6.764;2024-01-30T04:19:03;14.82;;;6.80;;
26502;SDS011;14177;51.520;6.764;2024-01-30T04:21:37;14.20;;;6.68;;
26502;SDS011;14177;51.520;6.764;2024-01-30T04:24:07;10.60;;;6.75;;
26502;SDS011;14177;51.520;6.764;2024-01-30T04:26:36;16.00;;;8.15;;
26502;SDS011;14177;51.520;6.764;2024-01-30T04:29:03;15.48;;;7.90;;
26502;SDS011;14177;51.520;6.764;2024-01-30T04:31:35;12.18;;;6.78;;
26502;SDS011;14177;51.520;6.764;2024-01-30T04:34:12;19.00;;;7.82;;
26502;SDS011;14177;51.520;6.764;2024-01-30T04:36:46;11.60;;;7.15;;
26502;SDS011;14177;51.520;6.764;2024-01-30T04:39:13;11.60;;;6.47;;
26502;SDS011;14177;51.520;6.764;2024-01-30T04:41:40;11.57;;;5.93;;
26502;SDS011;14177;51.520;6.764;2024-01-30T04:44:07;14.65;;;7.00;;
26502;SDS011;14177;51.520;6.764;2024-01-30T04:46:39;14.23;;;6.30;;
26502;SDS011;14177;51.520;6.764;2024-01-30T04:49:06;10.80;;;5.50;;
26502;SDS011;14177;51.520;6.764;2024-01-30T04:51:36;14.27;;;6.50;;
26502;SDS011;14177;51.520;6.764;2024-01-30T04:54:05;11.60;;;6.07;;
26502;SDS011;14177;51.520;6.764;2024-01-30T04:56:40;10.48;;;6.00;;
26502;SDS011;14177;51.520;6.764;2024-01-30T05:01:52;10.80;;;6.72;;
26502;SDS011;14177;51.520;6.764;2024-01-30T05:04:19;11.13;;;5.75;;
26502;SDS011;14177;51.520;6.764;2024-01-30T05:06:46;11.82;;;6.28;;
26502;SDS011;14177;51.520;6.764;2024-01-30T05:09:13;11.00;;;5.85;;
26502;SDS011;14177;51.520;6.764;2024-01-30T05:11:40;13.18;;;5.93;;
26502;SDS011;14177;51.520;6.764;2024-01-30T05:14:10;9.15;;;5.20;;
26502;SDS011;14177;51.520;6.764;2024-01-30T05:16:41;10.23;;;6.03;;
26502;SDS011;14177;51.520;6.764;2024-01-30T05:19:13;9.02;;;6.10;;
26502;SDS011;14177;51.520;6.764;2024-01-30T05:21:45;10.30;;;5.50;;
26502;SDS011;14177;51.520;6.764;2024-01-30T05:24:12;12.40;;;6.15;;
26502;SDS011;14177;51.520;6.764;2024-01-30T05:26:40;10.48;;;5.85;;
26502;SDS011;14177;51.520;6.764;2024-01-30T05:31:45;13.38;;;6.38;;
26502;SDS011;14177;51.520;6.764;2024-01-30T05:34:25;12.27;;;5.95;;
26502;SDS011;14177;51.520;6.764;2024-01-30T05:36:56;9.73;;;5.82;;
26502;SDS011;14177;51.520;6.764;2024-01-30T05:39:28;12.88;;;6.18;;
26502;SDS011;14177;51.520;6.764;2024-01-30T05:41:57;10.93;;;6.55;;
26502;SDS011;14177;51.520;6.764;2024-01-30T05:44:26;10.88;;;6.47;;
26502;SDS011;14177;51.520;6.764;2024-01-30T05:46:56;11.35;;;6.03;;
26502;SDS011;14177;51.520;6.764;2024-01-30T05:49:27;11.80;;;5.97;;
26502;SDS011;14177;51.520;6.764;2024-01-30T05:51:58;11.65;;;6.10;;
26502;SDS011;14177;51.520;6.764;2024-01-30T05:54:25;12.27;;;6.15;;
26502;SDS011;14177;51.520;6.764;2024-01-30T05:57:00;14.95;;;6.13;;
26502;SDS011;14177;51.520;6.764;2024-01-30T05:59:31;11.90;;;6.10;;
26502;SDS011;14177;51.520;6.764;2024-01-30T06:02:04;9.43;;;5.97;;
26502;SDS011;14177;51.520;6.764;2024-01-30T06:04:40;11.63;;;5.47;;
26502;SDS011;14177;51.520;6.764;2024-01-30T06:07:14;13.68;;;6.63;;
26502;SDS011;14177;51.520;6.764;2024-01-30T06:09:45;9.73;;;5.85;;
26502;SDS011;14177;51.520;6.764;2024-01-30T06:12:15;11.07;;;5.75;;
26502;SDS011;14177;51.520;6.764;2024-01-30T06:14:45;10.65;;;5.78;;
26502;SDS011;14177;51.520;6.764;2024-01-30T06:17:22;9.98;;;5.75;;
26502;SDS011;14177;51.520;6.764;2024-01-30T06:19:53;12.38;;;5.75;;
26502;SDS011;14177;51.520;6.764;2024-01-30T06:22:20;10.95;;;5.70;;
26502;SDS011;14177;51.520;6.764;2024-01-30T06:24:55;17.77;;;6.25;;
26502;SDS011;14177;51.520;6.764;2024-01-30T06:27:26;10.55;;;5.40;;
26502;SDS011;14177;51.520;6.764;2024-01-30T06:29:56;12.75;;;6.78;;
26502;SDS011;14177;51.520;6.764;2024-01-30T06:32:35;10.23;;;5.13;;
26502;SDS011;14177;51.520;6.764;2024-01-30T06:35:02;13.40;;;5.70;;
26502;SDS011;14177;51.520;6.764;2024-01-30T06:37:45;9.30;;;5.85;;
26502;SDS011;14177;51.520;6.764;2024-01-30T06:40:15;11.27;;;5.68;;
26502;SDS011;14177;51.520;6.764;2024-01-30T06:42:49;11.40;;;5.37;;
26502;SDS011;14177;51.520;6.764;2024-01-30T06:45:21;13.73;;;5.90;;
26502;SDS011;14177;51.520;6.764;2024-01-30T06:47:52;9.02;;;5.32;;
26502;SDS011;14177;51.520;6.764;2024-01-30T06:50:25;9.85;;;5.15;;
26502;SDS011;14177;51.520;6.764;2024-01-30T06:52:57;11.23;;;6.38;;
26502;SDS011;14177;51.520;6.764;2024-01-30T06:55:24;15.77;;;6.05;;
26502;SDS011;14177;51.520;6.764;2024-01-30T06:57:56;8.70;;;5.20;;
26502;SDS011;14177;51.520;6.764;2024-01-30T07:00:25;15.57;;;6.68;;
26502;SDS011;14177;51.520;6.764;2024-01-30T07:02:54;10.25;;;5.63;;
26502;SDS011;14177;51.520;6.764;2024-01-30T07:05:21;11.93;;;6.38;;
26502;SDS011;14177;51.520;6.764;2024-01-30T07:07:48;13.00;;;6.22;;
26502;SDS011;14177;51.520;6.764;2024-01-30T07:10:15;12.10;;;6.15;;
26502;SDS011;14177;51.520;6.764;2024-01-30T07:12:42;11.25;;;5.78;;
26502;SDS011;14177;51.520;6.764;2024-01-30T07:15:09;9.05;;;5.35;;
26502;SDS011;14177;51.520;6.764;2024-01-30T07:17:37;10.02;;;5.20;;
26502;SDS011;14177;51.520;6.764;2024-01-30T07:20:04;9.48;;;5.55;;
26502;SDS011;14177;51.520;6.764;2024-01-30T07:22:32;10.50;;;6.07;;
26502;SDS011;14177;51.520;6.764;2024-01-30T07:25:00;10.23;;;5.90;;
26502;SDS011;14177;51.520;6.764;2024-01-30T07:27:27;10.15;;;5.43;;
26502;SDS011;14177;51.520;6.764;2024-01-30T07:29:54;10.57;;;5.25;;
26502;SDS011;14177;51.520;6.764;2024-01-30T07:32:20;12.65;;;5.68;;
26502;SDS011;14177;51.520;6.764;2024-01-30T07:34:47;10.60;;;5.43;;
26502;SDS011;14177;51.520;6.764;2024-01-30T07:37:32;12.40;;;5.17;;
26502;SDS011;14177;51.520;6.764;2024-01-30T07:39:59;8.95;;;5.40;;
26502;SDS011;14177;51.520;6.764;2024-01-30T07:42:28;10.93;;;5.47;;
26502;SDS011;14177;51.520;6.764;2024-01-30T07:44:54;10.55;;;6.13;;
26502;SDS011;14177;51.520;6.764;2024-01-30T07:47:21;10.55;;;5.18;;
26502;SDS011;14177;51.520;6.764;2024-01-30T07:49:48;12.65;;;5.88;;
26502;SDS011;14177;51.520;6.764;2024-01-30T07:52:15;10.75;;;5.57;;
26502;SDS011;14177;51.520;6.764;2024-01-30T07:54:43;12.80;;;5.70;;
26502;SDS011;14177;51.520;6.764;2024-01-30T07:57:09;12.15;;;5.50;;
26502;SDS011;14177;51.520;6.764;2024-01-30T07:59:36;11.85;;;5.63;;
26502;SDS011;14177;51.520;6.764;2024-01-30T08:02:03;23.63;;;6.07;;
26502;SDS011;14177;51.520;6.764;2024-01-30T08:04:30;10.93;;;5.63;;
26502;SDS011;14177;51.520;6.764;2024-01-30T08:07:00;9.73;;;5.07;;
26502;SDS011;14177;51.520;6.764;2024-01-30T08:09:27;12.23;;;5.53;;
26502;SDS011;14177;51.520;6.764;2024-01-30T08:11:54;11.25;;;5.68;;
26502;SDS011;14177;51.520;6.764;2024-01-30T08:14:21;11.40;;;5.57;;
26502;SDS011;14177;51.520;6.764;2024-01-30T08:16:48;15.32;;;5.55;;
26502;SDS011;14177;51.520;6.764;2024-01-30T08:19:15;12.55;;;5.65;;
26502;SDS011;14177;51.520;6.764;2024-01-30T08:21:51;8.60;;;5.35;;
26502;SDS011;14177;51.520;6.764;2024-01-30T08:24:18;14.32;;;5.88;;
26502;SDS011;14177;51.520;6.764;2024-01-30T08:26:53;9.48;;;5.32;;
26502;SDS011;14177;51.520;6.764;2024-01-30T08:29:23;13.75;;;5.63;;
26502;SDS011;14177;51.520;6.764;2024-01-30T08:31:51;14.57;;;5.70;;
26502;SDS011;14177;51.520;6.764;2024-01-30T08:34:18;14.70;;;6.05;;
26502;SDS011;14177;51.520;6.764;2024-01-30T08:36:45;13.57;;;5.75;;
26502;SDS011;14177;51.520;6.764;2024-01-30T08:39:12;10.85;;;5.93;;
26502;SDS011;14177;51.520;6.764;2024-01-30T08:41:42;17.42;;;6.30;;
26502;SDS011;14177;51.520;6.764;2024-01-30T08:44:10;11.98;;;5.00;;
26502;SDS011;14177;51.520;6.764;2024-01-30T08:46:37;14.57;;;6.18;;
26502;SDS011;14177;51.520;6.764;2024-01-30T08:49:08;11.70;;;6.03;;
26502;SDS011;14177;51.520;6.764;2024-01-30T08:51:35;12.10;;;5.88;;
26502;SDS011;14177;51.520;6.764;2024-01-30T08:54:02;11.55;;;5.85;;
26502;SDS011;14177;51.520;6.764;2024-01-30T08:56:30;15.63;;;6.03;;
26502;SDS011;14177;51.520;6.764;2024-01-30T08:59:00;15.55;;;6.95;;
26502;SDS011;14177;51.520;6.764;2024-01-30T09:01:29;14.30;;;5.88;;
26502;SDS011;14177;51.520;6.764;2024-01-30T09:03:57;12.57;;;5.75;;
26502;SDS011;14177;51.520;6.764;2024-01-30T09:09:46;15.23;;;6.70;;
26502;SDS011;14177;51.520;6.764;2024-01-30T09:12:22;14.25;;;6.13;;
26502;SDS011;14177;51.520;6.764;2024-01-30T09:14:54;15.63;;;6.97;;
26502;SDS011;14177;51.520;6.764;2024-01-30T09:18:08;13.07;;;6.68;;
26502;SDS011;14177;51.520;6.764;2024-01-30T09:20:42;18.63;;;7.20;;
26502;SDS011;14177;51.520;6.764;2024-01-30T09:23:12;11.98;;;6.70;;
26502;SDS011;14177;51.520;6.764;2024-01-30T09:25:40;21.80;;;7.53;;
26502;SDS011;14177;51.520;6.764;2024-01-30T09:28:27;14.77;;;6.68;;
26502;SDS011;14177;51.520;6.764;2024-01-30T09:30:58;16.17;;;6.60;;
26502;SDS011;14177;51.520;6.764;2024-01-30T09:33:39;16.83;;;6.75;;
26502;SDS011;14177;51.520;6.764;2024-01-30T09:36:21;15.27;;;7.05;;
26502;SDS011;14177;51.520;6.764;2024-01-30T09:38:52;13.15;;;6.78;;
26502;SDS011;14177;51.520;6.764;2024-01-30T09:41:23;13.07;;;6.85;;
26502;SDS011;14177;51.520;6.764;2024-01-30T09:43:57;12.55;;;6.68;;
26502;SDS011;14177;51.520;6.764;2024-01-30T09:46:32;13.77;;;6.38;;
26502;SDS011;14177;51.520;6.764;2024-01-30T09:49:08;15.90;;;6.80;;
26502;SDS011;14177;51.520;6.764;2024-01-30T09:51:47;12.38;;;6.43;;
26502;SDS011;14177;51.520;6.764;2024-01-30T09:54:35;19.42;;;7.32;;
26502;SDS011;14177;51.520;6.764;2024-01-30T09:57:04;15.15;;;7.30;;
26502;SDS011;14177;51.520;6.764;2024-01-30T10:00:10;16.50;;;7.20;;
26502;SDS011;14177;51.520;6.764;2024-01-30T10:03:31;14.77;;;7.05;;
26502;SDS011;14177;51.520;6.764;2024-01-30T10:07:13;14.27;;;7.20;;
26502;SDS011;14177;51.520;6.764;2024-01-30T10:11:02;11.95;;;6.68;;
26502;SDS011;14177;51.520;6.764;2024-01-30T10:13:58;14.82;;;6.78;;
26502;SDS011;14177;51.520;6.764;2024-01-30T10:16:45;12.20;;;6.28;;
26502;SDS011;14177;51.520;6.764;2024-01-30T10:19:29;10.65;;;5.95;;
26502;SDS011;14177;51.520;6.764;2024-01-30T10:23:02;13.43;;;6.53;;
26502;SDS011;14177;51.520;6.764;2024-01-30T10:25:31;14.68;;;6.85;;
26502;SDS011;14177;51.520;6.764;2024-01-30T10:28:00;11.38;;;6.47;;
26502;SDS011;14177;51.520;6.764;2024-01-30T10:30:27;10.02;;;6.10;;
26502;SDS011;14177;51.520;6.764;2024-01-30T10:33:01;17.17;;;6.47;;
26502;SDS011;14177;51.520;6.764;2024-01-30T10:36:14;18.95;;;6.88;;
26502;SDS011;14177;51.520;6.764;2024-01-30T10:38:49;15.65;;;6.35;;
26502;SDS011;14177;51.520;6.764;2024-01-30T10:41:26;13.43;;;7.00;;
26502;SDS011;14177;51.520;6.764;2024-01-30T10:44:01;16.05;;;7.03;;
26502;SDS011;14177;51.520;6.764;2024-01-30T10:46:37;14.60;;;6.53;;
26502;SDS011;14177;51.520;6.764;2024-01-30T10:49:08;10.68;;;5.63;;
26502;SDS011;14177;51.520;6.764;2024-01-30T10:55:51;13.45;;;6.18;;
26502;SDS011;14177;51.520;6.764;2024-01-30T11:02:48;16.55;;;7.05;;
26502;SDS011;14177;51.520;6.764;2024-01-30T11:06:11;14.82;;;7.78;;
26502;SDS011;14177;51.520;6.764;2024-01-30T11:09:10;12.27;;;7.03;;
26502;SDS011;14177;51.520;6.764;2024-01-30T11:15:19;15.10;;;7.10;;
26502;SDS011;14177;51.520;6.764;2024-01-30T11:18:26;18.77;;;7.40;;
26502;SDS011;14177;51.520;6.764;2024-01-30T11:21:04;15.70;;;6.57;;
26502;SDS011;14177;51.520;6.764;2024-01-30T11:23:34;16.35;;;7.20;;
26502;SDS011;14177;51.520;6.764;2024-01-30T11:30:24;14.65;;;7.05;;
26502;SDS011;14177;51.520;6.764;2024-01-30T11:33:46;13.45;;;6.30;;
26502;SDS011;14177;51.520;6.764;2024-01-30T11:36:16;14.07;;;6.22;;
26502;SDS011;14177;51.520;6.764;2024-01-30T11:38:59;13.52;;;6.40;;
26502;SDS011;14177;51.520;6.764;2024-01-30T11:41:38;12.77;;;6.95;;
26502;SDS011;14177;51.520;6.764;2024-01-30T11:44:09;14.45;;;6.47;;
26502;SDS011;14177;51.520;6.764;2024-01-30T11:46:39;16.55;;;6.38;;
26502;SDS011;14177;51.520;6.764;2024-01-30T11:49:11;15.82;;;7.03;;
26502;SDS011;14177;51.520;6.764;2024-01-30T11:51:46;19.80;;;7.28;;
26502;SDS011;14177;51.520;6.764;2024-01-30T11:54:20;13.60;;;6.90;;
26502;SDS011;14177;51.520;6.764;2024-01-30T11:56:47;14.75;;;6.95;;
26502;SDS011;14177;51.520;6.764;2024-01-30T11:59:18;13.68;;;6.63;;
26502;SDS011;14177;51.520;6.764;2024-01-30T12:01:46;13.38;;;6.60;;
26502;SDS011;14177;51.520;6.764;2024-01-30T12:04:14;14.43;;;6.72;;
26502;SDS011;14177;51.520;6.764;2024-01-30T12:06:42;11.43;;;6.47;;
26502;SDS011;14177;51.520;6.764;2024-01-30T12:09:09;15.35;;;6.85;;
26502;SDS011;14177;51.520;6.764;2024-01-30T12:11:48;16.52;;;7.25;;
26502;SDS011;14177;51.520;6.764;2024-01-30T12:14:18;14.02;;;6.90;;
26502;SDS011;14177;51.520;6.764;2024-01-30T12:16:49;14.23;;;7.13;;
26502;SDS011;14177;51.520;6.764;2024-01-30T12:19:23;14.00;;;6.68;;
26502;SDS011;14177;51.520;6.764;2024-01-30T12:21:58;16.60;;;7.05;;
26502;SDS011;14177;51.520;6.764;2024-01-30T12:24:26;17.52;;;7.25;;
26502;SDS011;14177;51.520;6.764;2024-01-30T12:26:56;21.88;;;7.03;;
26502;SDS011;14177;51.520;6.764;2024-01-30T12:29:25;12.45;;;6.18;;
26502;SDS011;14177;51.520;6.764;2024-01-30T12:31:57;16.20;;;6.85;;
26502;SDS011;14177;51.520;6.764;2024-01-30T12:34:24;16.23;;;7.15;;
26502;SDS011;14177;51.520;6.764;2024-01-30T12:36:52;16.38;;;7.10;;
26502;SDS011;14177;51.520;6.764;2024-01-30T12:39:19;15.80;;;7.00;;
26502;SDS011;14177;51.520;6.764;2024-01-30T12:41:47;14.70;;;6.60;;
26502;SDS011;14177;51.520;6.764;2024-01-30T12:44:18;19.38;;;7.68;;
26502;SDS011;14177;51.520;6.764;2024-01-30T13:07:19;19.33;;;7.45;;
26502;SDS011;14177;51.520;6.764;2024-01-30T13:10:06;13.57;;;6.72;;
26502;SDS011;14177;51.520;6.764;2024-01-30T13:12:35;19.27;;;6.88;;
26502;SDS011;14177;51.520;6.764;2024-01-30T13:15:07;18.77;;;7.72;;
26502;SDS011;14177;51.520;6.764;2024-01-30T13:18:31;22.67;;;8.25;;
26502;SDS011;14177;51.520;6.764;2024-01-30T13:21:23;19.73;;;7.38;;
26502;SDS011;14177;51.520;6.764;2024-01-30T13:24:33;17.08;;;6.60;;
26502;SDS011;14177;51.520;6.764;2024-01-30T13:27:22;10.43;;;6.30;;
26502;SDS011;14177;51.520;6.764;2024-01-30T13:30:06;22.58;;;6.93;;
26502;SDS011;14177;51.520;6.764;2024-01-30T13:32:39;13.98;;;6.07;;
26502;SDS011;14177;51.520;6.764;2024-01-30T13:35:23;16.10;;;6.50;;
26502;SDS011;14177;51.520;6.764;2024-01-30T13:37:58;21.65;;;6.85;;
26502;SDS011;14177;51.520;6.764;2024-01-30T13:40:28;17.02;;;6.35;;
26502;SDS011;14177;51.520;6.764;2024-01-30T13:43:04;14.40;;;6.35;;
26502;SDS011;14177;51.520;6.764;2024-01-30T13:45:57;12.85;;;5.55;;
26502;SDS011;14177;51.520;6.764;2024-01-30T13:48:42;18.95;;;6.15;;
26502;SDS011;14177;51.520;6.764;2024-01-30T13:51:32;11.52;;;5.18;;
26502;SDS011;14177;51.520;6.764;2024-01-30T13:54:16;10.35;;;5.50;;
26502;SDS011;14177;51.520;6.764;2024-01-30T13:56:51;14.60;;;6.28;;
26502;SDS011;14177;51.520;6.764;2024-01-30T13:59:29;14.27;;;6.28;;
26502;SDS011;14177;51.520;6.764;2024-01-30T14:02:40;16.65;;;6.68;;
26502;SDS011;14177;51.520;6.764;2024-01-30T14:05:07;20.23;;;6.40;;
26502;SDS011;14177;51.520;6.764;2024-01-30T14:07:36;12.68;;;5.50;;
26502;SDS011;14177;51.520;6.764;2024-01-30T14:10:06;12.63;;;5.20;;
26502;SDS011;14177;51.520;6.764;2024-01-30T14:12:38;11.15;;;5.70;;
26502;SDS011;14177;51.520;6.764;2024-01-30T14:15:07;14.52;;;6.50;;
26502;SDS011;14177;51.520;6.764;2024-01-30T14:17:52;10.52;;;4.90;;
26502;SDS011;14177;51.520;6.764;2024-01-30T14:20:20;17.33;;;5.88;;
26502;SDS011;14177;51.520;6.764;2024-01-30T14:22:48;13.43;;;5.55;;
26502;SDS011;14177;51.520;6.764;2024-01-30T14:25:15;15.80;;;5.60;;
26502;SDS011;14177;51.520;6.764;2024-01-30T14:27:43;12.10;;;5.78;;
26502;SDS011;14177;51.520;6.764;2024-01-30T14:30:11;9.88;;;4.32;;
26502;SDS011;14177;51.520;6.764;2024-01-30T14:32:38;9.70;;;4.93;;
26502;SDS011;14177;51.520;6.764;2024-01-30T14:35:07;7.95;;;4.60;;
26502;SDS011;14177;51.520;6.764;2024-01-30T14:37:35;9.48;;;4.40;;
26502;SDS011;14177;51.520;6.764;2024-01-30T14:40:04;5.95;;;3.60;;
26502;SDS011;14177;51.520;6.764;2024-01-30T14:42:35;12.25;;;3.88;;
26502;SDS011;14177;51.520;6.764;2024-01-30T14:45:05;8.23;;;3.50;;
26502;SDS011;14177;51.520;6.764;2024-01-30T14:47:34;14.90;;;3.33;;
26502;SDS011;14177;51.520;6.764;2024-01-30T14:50:02;8.00;;;3.30;;
26502;SDS011;14177;51.520;6.764;2024-01-30T14:52:35;9.90;;;3.55;;
26502;SDS011;14177;51.520;6.764;2024-01-30T14:55:22;10.38;;;3.70;;
26502;SDS011;14177;51.520;6.764;2024-01-30T14:57:50;7.88;;;3.28;;
26502;SDS011;14177;51.520;6.764;2024-01-30T15:00:17;7.35;;;3.17;;
26502;SDS011;14177;51.520;6.764;2024-01-30T15:02:44;6.35;;;2.97;;
26502;SDS011;14177;51.520;6.764;2024-01-30T15:05:13;7.40;;;2.72;;
26502;SDS011;14177;51.520;6.764;2024-01-30T15:07:41;6.88;;;3.35;;
26502;SDS011;14177;51.520;6.764;2024-01-30T15:10:08;6.70;;;2.95;;
26502;SDS011;14177;51.520;6.764;2024-01-30T15:12:37;7.13;;;2.90;;
26502;SDS011;14177;51.520;6.764;2024-01-30T15:15:06;5.13;;;2.28;;
26502;SDS011;14177;51.520;6.764;2024-01-30T15:17:36;8.18;;;2.13;;
26502;SDS011;14177;51.520;6.764;2024-01-30T15:20:03;6.68;;;1.80;;
26502;SDS011;14177;51.520;6.764;2024-01-30T15:22:31;10.07;;;2.20;;
26502;SDS011;14177;51.520;6.764;2024-01-30T15:24:58;9.32;;;2.15;;
26502;SDS011;14177;51.520;6.764;2024-01-30T15:27:25;3.30;;;1.50;;
26502;SDS011;14177;51.520;6.764;2024-01-30T15:29:55;6.82;;;1.33;;
26502;SDS011;14177;51.520;6.764;2024-01-30T15:32:22;11.18;;;1.30;;
26502;SDS011;14177;51.520;6.764;2024-01-30T15:34:50;6.28;;;1.17;;
26502;SDS011;14177;51.520;6.764;2024-01-30T15:37:17;2.53;;;0.90;;
26502;SDS011;14177;51.520;6.764;2024-01-30T15:39:44;5.30;;;1.27;;
26502;SDS011;14177;51.520;6.764;2024-01-30T15:42:11;3.25;;;0.93;;
26502;SDS011;14177;51.520;6.764;2024-01-30T15:44:38;4.70;;;0.85;;
26502;SDS011;14177;51.520;6.764;2024-01-30T15:47:05;6.93;;;1.15;;
26502;SDS011;14177;51.520;6.764;2024-01-30T15:49:32;1.95;;;1.00;;
26502;SDS011;14177;51.520;6.764;2024-01-30T15:51:59;2.47;;;0.80;;
26502;SDS011;14177;51.520;6.764;2024-01-30T15:54:26;4.53;;;0.88;;
26502;SDS011;14177;51.520;6.764;2024-01-30T15:56:53;3.40;;;0.80;;